Felipe Yofre, Argentina
Current Conditions -  °F | °C
As of 12:00 AM on Friday 28 Nov 2014 (Local Time) from SARL Reporting Station
Clear Clear  
Wind Chill: 22°   Ceiling: Unl
Heat Index: 22°   Visibility: 6mi
Dew Point: 16°   Wind: 9mph
Humidity: 69%   Direction: 140°SE
Pressure: 29.91"   Gusts: NA
Location:  29.1°S, 58.33°W
Report Text: SARL 280300Z 14008KT CAVOK 22/16 Q1013
Loading
Personal Weather Stations






























Interactive Weather Map New forecast layout! Learn more

10-Day Weather Forecast

Advertisements
Track Severe Weather on mobile